createdAt,value
2023-03-29T00:03:32.692Z,24.8
2023-03-29T00:09:08.936Z,24.2
2023-03-29T00:15:00.510Z,24.1
2023-03-29T00:20:52.551Z,23.5
2023-03-29T00:26:44.198Z,23.4
2023-03-29T00:32:20.794Z,22.8
2023-03-29T00:38:12.935Z,24.6
2023-03-29T00:43:34.013Z,26.3
2023-03-29T00:48:54.945Z,24.8
2023-03-29T00:54:31.674Z,24.3
2023-03-29T01:00:07.679Z,24.5
2023-03-29T01:05:44.612Z,23.9
2023-03-29T01:11:05.345Z,23.8
2023-03-29T01:16:41.244Z,23.3
2023-03-29T01:22:32.865Z,23.1
2023-03-29T01:28:23.900Z,23
2023-03-29T01:34:15.732Z,24.9
2023-03-29T01:40:07.810Z,26.5
2023-03-29T01:45:28.046Z,24.4
2023-03-29T01:51:04.713Z,24.3
2023-03-29T01:56:56.757Z,24.3
2023-03-29T02:02:33.070Z,24
2023-03-29T02:08:25.264Z,23.5
2023-03-29T02:14:17.259Z,23.3
2023-03-29T02:19:53.677Z,22.8
2023-03-29T02:25:30.124Z,23.9
2023-03-29T02:31:22.175Z,25.8
2023-03-29T02:36:58.864Z,24.8
2023-03-29T02:42:34.725Z,26.3
2023-03-29T02:47:58.062Z,24.4
2023-03-29T02:53:49.941Z,24.1
2023-03-29T02:59:41.854Z,24.3
2023-03-29T03:05:18.655Z,23.9
2023-03-29T03:11:09.376Z,23.5
2023-03-29T03:17:03.173Z,23.3
2023-03-29T03:22:41.663Z,22.8
2023-03-29T03:28:17.689Z,23.9
2023-03-29T03:34:09.574Z,25.5
2023-03-29T03:39:46.569Z,26.8
2023-03-29T03:45:10.753Z,24.2
2023-03-29T03:50:47.470Z,24.6
2023-03-29T03:56:23.847Z,24
2023-03-29T04:02:00.456Z,23.9
2023-03-29T04:07:53.392Z,23.3
2023-03-29T04:13:30.017Z,23.2
2023-03-29T04:19:23.166Z,22.6
2023-03-29T04:25:15.509Z,24.3
2023-03-29T04:31:07.535Z,25.9
2023-03-29T04:37:02.115Z,25.9
2023-03-29T04:42:39.879Z,24.1
2023-03-29T04:48:16.741Z,24.5
2023-03-29T04:54:08.120Z,23.9
2023-03-29T05:00:01.936Z,23.8
2023-03-29T05:05:53.689Z,23.1
2023-03-29T05:11:47.799Z,22.9
2023-03-29T05:17:40.089Z,22.9
2023-03-29T05:23:32.037Z,24.9
2023-03-29T05:29:22.920Z,26.3
2023-03-29T05:34:58.785Z,24.4
2023-03-29T05:40:26.804Z,23.9
2023-03-29T05:46:03.979Z,24.3
2023-03-29T05:51:40.550Z,23.6
2023-03-29T05:57:32.919Z,23.6
2023-03-29T06:03:36.914Z,23.2
2023-03-29T06:09:29.640Z,22.8
2023-03-29T06:15:21.523Z,23.9
2023-03-29T06:21:13.324Z,25.4
2023-03-29T06:27:05.737Z,24.8
2023-03-29T06:33:00.320Z,26.3
2023-03-29T06:38:36.569Z,23.9
2023-03-29T06:44:25.624Z,23.6
2023-03-29T06:50:16.961Z,24
2023-03-29T06:55:53.018Z,23.7
2023-03-29T07:01:29.906Z,23.2
2023-03-29T07:06:51.924Z,23.3
2023-03-29T07:12:43.929Z,25
2023-03-29T07:18:37.721Z,26.5
2023-03-29T07:23:58.908Z,23.8
2023-03-29T07:30:03.845Z,23.4
2023-03-29T07:35:41.181Z,23.9
2023-03-29T07:41:18.003Z,23.6
2023-03-29T07:47:08.715Z,23.1
2023-03-29T07:53:00.199Z,23.2
2023-03-29T07:58:52.251Z,25.1
2023-03-29T08:04:47.906Z,26.7
2023-03-29T08:10:21.758Z,24.1
2023-03-29T08:15:59.422Z,24.5
2023-03-29T08:21:46.515Z,24.1
2023-03-29T08:27:22.857Z,23.4
2023-03-29T08:33:15.738Z,23.5
2023-03-29T08:39:07.640Z,25.2
2023-03-29T08:44:43.802Z,26.9
2023-03-29T08:50:11.130Z,24.2
2023-03-29T08:55:15.914Z,23.8
2023-03-29T09:00:52.206Z,23.4
2023-03-29T09:06:14.263Z,22.9
2023-03-29T09:11:51.416Z,22.6
2023-03-29T09:17:28.218Z,24.9
2023-03-29T09:23:05.642Z,26.7
2023-03-29T09:28:54.873Z,23.6
2023-03-29T09:34:00.683Z,23.4
2023-03-29T09:39:37.400Z,23.1
2023-03-29T09:45:37.738Z,24.4
2023-03-29T09:51:26.449Z,26.6
2023-03-29T09:57:04.272Z,23.6
2023-03-29T10:02:41.149Z,23.4
2023-03-29T10:08:19.557Z,23.1
2023-03-29T10:13:57.218Z,24.2
2023-03-29T10:19:44.222Z,26.3
2023-03-29T10:25:08.943Z,23.8
2023-03-29T10:30:46.939Z,23.4
2023-03-29T10:36:24.020Z,23.3
2023-03-29T10:41:59.762Z,24.7
2023-03-29T10:47:20.949Z,26.8
2023-03-29T10:52:57.969Z,23.6
2023-03-29T10:58:34.188Z,23.4
2023-03-29T11:03:56.248Z,23.1
2023-03-29T11:09:32.236Z,22.8
2023-03-29T11:15:20.701Z,24.1
2023-03-29T11:20:42.214Z,24.1
2023-03-29T11:26:03.701Z,23.3
2023-03-29T11:31:24.668Z,23.1
2023-03-29T11:37:01.709Z,22.6
2023-03-29T11:42:07.254Z,22.2
2023-03-29T11:47:59.408Z,24.6
2023-03-29T11:53:37.978Z,24.1
2023-03-29T11:58:59.194Z,23.6
2023-03-29T12:04:37.903Z,23.1
2023-03-29T12:10:14.574Z,22.6
2023-03-29T12:15:37.939Z,22.1
2023-03-29T12:21:17.353Z,24.2
2023-03-29T12:26:54.129Z,24.4
2023-03-29T12:32:15.139Z,23.8
2023-03-29T12:37:52.251Z,23.3
2023-03-29T12:43:44.175Z,22.8
2023-03-29T12:49:37.431Z,22.3
2023-03-29T12:55:29.136Z,22.5
2023-03-29T13:01:06.559Z,25.1
2023-03-29T13:06:58.656Z,23.5
2023-03-29T13:12:50.182Z,23.2
2023-03-29T13:18:57.023Z,22.9
2023-03-29T13:24:48.264Z,22.4
2023-03-29T13:30:39.749Z,21.9
2023-03-29T13:36:16.366Z,21.6
2023-03-29T13:42:08.201Z,23.7
2023-03-29T13:48:15.145Z,25
2023-03-29T13:54:07.174Z,23.6
2023-03-29T14:00:02.118Z,23.2
2023-03-29T14:05:53.941Z,22.8
2023-03-29T14:11:45.902Z,22.3
2023-03-29T14:17:44.911Z,21.8
2023-03-29T14:23:36.885Z,21.4
2023-03-29T14:29:13.826Z,20.9
2023-03-29T14:35:05.348Z,20.6
2023-03-29T14:40:58.065Z,20.2
2023-03-29T14:46:50.704Z,19.8
2023-03-29T14:52:41.190Z,19.5
2023-03-29T14:58:33.176Z,19.2
2023-03-29T15:04:28.466Z,18.9
2023-03-29T15:10:29.870Z,18.6
2023-03-29T15:17:33.428Z,18.3
2023-03-29T15:23:30.035Z,18.1
2023-03-29T15:29:08.310Z,17.9
2023-03-29T15:35:16.440Z,17.7
2023-03-29T15:41:20.561Z,17.6
2023-03-29T15:47:11.904Z,17.4
2023-03-29T15:53:12.580Z,17.3
2023-03-29T15:59:07.202Z,17.3
2023-03-29T16:04:59.142Z,17.4
2023-03-29T16:10:36.823Z,17.3
2023-03-29T16:16:29.527Z,17.3
2023-03-29T16:22:20.795Z,17.2
2023-03-29T16:27:56.620Z,17.1
2023-03-29T16:33:33.862Z,17.1
2023-03-29T16:39:25.501Z,17.1
2023-03-29T16:56:15.097Z,17.3
2023-03-29T17:02:09.770Z,17.7
2023-03-29T17:08:02.452Z,18.2
2023-03-29T17:19:31.515Z,19.1
2023-03-29T17:25:23.341Z,19.6
2023-03-29T17:31:14.516Z,19.9
2023-03-29T17:37:06.866Z,19.9
2023-03-29T17:42:59.744Z,19.9
2023-03-29T17:48:55.125Z,19.9
2023-03-29T17:54:46.793Z,19.7
2023-03-29T18:00:39.246Z,19.6
2023-03-29T18:06:31.913Z,19.6
2023-03-29T18:12:23.539Z,19.5
2023-03-29T18:18:15.864Z,19.4
2023-03-29T18:24:06.366Z,19.3
2023-03-29T18:29:27.314Z,19.2
2023-03-29T18:35:20.061Z,19.1
2023-03-29T18:41:15.392Z,18.9
2023-03-29T18:47:07.396Z,18.8
2023-03-29T18:53:01.576Z,18.6
2023-03-29T18:58:54.772Z,18.6
2023-03-29T19:04:47.923Z,18.5
2023-03-29T19:10:09.327Z,18.4
2023-03-29T19:15:45.554Z,18.3
2023-03-29T19:21:37.540Z,18.2
2023-03-29T19:27:30.406Z,18.1
2023-03-29T19:33:23.901Z,17.9
2023-03-29T19:38:44.175Z,17.8
2023-03-29T19:44:36.446Z,17.7
2023-03-29T19:50:35.031Z,17.6
2023-03-29T19:56:27.372Z,17.4
2023-03-29T20:02:04.781Z,17.4
2023-03-29T20:07:41.684Z,17.3
2023-03-29T20:13:51.886Z,17.1
2023-03-29T20:25:20.238Z,16.9
2023-03-29T20:31:11.582Z,16.8
2023-03-29T20:37:04.714Z,16.8
2023-03-29T20:43:00.101Z,16.6
2023-03-29T20:48:51.801Z,16.6
2023-03-29T20:54:44.181Z,16.5
2023-03-29T21:00:35.436Z,16.4
2023-03-29T21:06:12.138Z,24.3
2023-03-29T21:12:06.043Z,24.5
2023-03-29T21:18:01.203Z,23.6
2023-03-29T21:23:35.781Z,22.6
2023-03-29T21:29:28.153Z,21.8
2023-03-29T21:35:20.461Z,21.1
2023-03-29T21:41:12.108Z,24.2
2023-03-29T21:47:04.368Z,26.8
2023-03-29T21:52:56.191Z,25.3
2023-03-29T21:58:31.552Z,25
2023-03-29T22:04:08.691Z,24.6
2023-03-29T22:10:11.562Z,24
2023-03-29T22:16:02.870Z,23.4
2023-03-29T22:21:55.932Z,22.9
2023-03-29T22:27:47.790Z,24.5
2023-03-29T22:33:39.994Z,26.9
2023-03-29T22:39:32.595Z,24.9
2023-03-29T22:45:24.466Z,24.7
2023-03-29T22:51:16.407Z,24.3
2023-03-29T22:57:08.123Z,23.8
2023-03-29T23:02:45.385Z,23.2
2023-03-29T23:08:20.992Z,23.4
2023-03-29T23:14:12.220Z,25.8
2023-03-29T23:19:48.018Z,24.9
2023-03-29T23:25:41.227Z,24.5
2023-03-29T23:31:33.010Z,24.2
2023-03-29T23:37:09.313Z,23.8
2023-03-29T23:43:01.344Z,23.3
2023-03-29T23:48:53.813Z,23.4
2023-03-29T23:54:44.461Z,25.8
